createdAt,value
2023-01-10T00:02:05.699Z,3.32
2023-01-10T00:04:36.268Z,3.31
2023-01-10T00:07:18.759Z,3.23
2023-01-10T00:09:47.952Z,3.22
2023-01-10T00:12:34.283Z,3.30
2023-01-10T00:15:03.452Z,3.38
2023-01-10T00:17:33.340Z,3.37
2023-01-10T00:20:04.133Z,3.42
2023-01-10T00:22:33.345Z,3.38
2023-01-10T00:25:02.561Z,3.27
2023-01-10T00:27:32.654Z,3.22
2023-01-10T00:30:07.577Z,3.32
2023-01-10T00:32:36.633Z,3.32
2023-01-10T00:35:09.603Z,3.38
2023-01-10T00:37:39.015Z,3.29
2023-01-10T00:40:10.541Z,3.37
2023-01-10T00:42:57.083Z,3.42
2023-01-10T00:45:29.282Z,3.38
2023-01-10T00:47:58.410Z,3.40
2023-01-10T00:50:29.230Z,3.41
2023-01-10T00:52:58.289Z,3.39
2023-01-10T00:55:27.430Z,3.32
2023-01-10T00:57:59.475Z,3.36
2023-01-10T01:00:28.542Z,3.33
2023-01-10T01:02:58.060Z,3.34
2023-01-10T01:05:28.795Z,3.31
2023-01-10T01:07:58.295Z,3.41
2023-01-10T01:10:30.203Z,3.44
2023-01-10T01:13:01.870Z,3.39
2023-01-10T01:15:31.064Z,3.38
2023-01-10T01:18:01.355Z,3.40
2023-01-10T01:20:32.273Z,3.39
2023-01-10T01:23:01.853Z,3.24
2023-01-10T01:25:30.859Z,3.42
2023-01-10T01:27:59.942Z,3.31
2023-01-10T01:30:28.941Z,3.37
2023-01-10T01:32:58.965Z,3.36
2023-01-10T01:35:28.222Z,3.42
2023-01-10T01:37:58.789Z,3.36
2023-01-10T01:40:27.951Z,3.30
2023-01-10T01:42:57.041Z,3.23
2023-01-10T01:45:40.808Z,3.29
2023-01-10T01:48:21.280Z,3.36
2023-01-10T01:50:55.098Z,3.28
2023-01-10T01:53:31.230Z,3.44
2023-01-10T01:56:04.821Z,3.41
2023-01-10T01:58:39.955Z,3.52
2023-01-10T02:01:09.353Z,3.45
2023-01-10T02:03:40.954Z,3.55
2023-01-10T02:06:10.703Z,3.54
2023-01-10T02:08:46.043Z,3.52
2023-01-10T02:11:15.230Z,3.60
2023-01-10T02:13:47.257Z,3.52
2023-01-10T02:16:17.342Z,3.61
2023-01-10T02:18:46.606Z,3.63
2023-01-10T02:21:56.929Z,3.52
2023-01-10T02:25:11.079Z,3.42
2023-01-10T02:27:56.848Z,3.50
2023-01-10T02:30:48.084Z,3.60
2023-01-10T02:33:27.661Z,3.58
2023-01-10T02:36:07.674Z,3.46
2023-01-10T02:38:51.545Z,3.41
2023-01-10T02:41:28.209Z,3.51
2023-01-10T02:44:04.415Z,3.46
2023-01-10T02:46:35.371Z,3.39
2023-01-10T02:49:05.897Z,3.48
2023-01-10T02:51:34.943Z,3.50
2023-01-10T02:54:08.969Z,3.47
2023-01-10T02:57:13.022Z,3.52
2023-01-10T03:00:14.399Z,3.47
2023-01-10T03:03:09.067Z,3.46
2023-01-10T03:05:57.495Z,3.52
2023-01-10T03:08:34.175Z,3.53
2023-01-10T03:11:05.306Z,3.49
2023-01-10T03:13:39.396Z,3.48
2023-01-10T03:16:12.152Z,3.59
2023-01-10T03:18:46.726Z,3.52
2023-01-10T03:21:20.652Z,3.53
2023-01-10T03:23:52.281Z,3.58
2023-01-10T03:26:28.175Z,3.58
2023-01-10T03:29:03.868Z,3.55
2023-01-10T03:31:39.543Z,3.49
2023-01-10T03:34:09.453Z,3.53
2023-01-10T03:36:50.032Z,3.64
2023-01-10T03:39:25.296Z,3.61
2023-01-10T03:42:03.987Z,3.50
2023-01-10T03:44:45.181Z,3.50
2023-01-10T03:47:21.013Z,3.57
2023-01-10T03:49:55.566Z,3.60
2023-01-10T03:52:27.742Z,3.57
2023-01-10T03:55:07.524Z,3.54
2023-01-10T03:57:37.263Z,3.64
2023-01-10T04:00:07.459Z,3.62
2023-01-10T04:02:37.203Z,3.65
2023-01-10T04:05:07.566Z,3.64
2023-01-10T04:07:38.379Z,3.48
2023-01-10T04:10:08.806Z,3.51
2023-01-10T04:12:37.943Z,3.57
2023-01-10T04:15:08.182Z,3.49
2023-01-10T04:17:37.377Z,3.53
2023-01-10T04:20:07.253Z,3.53
2023-01-10T04:22:37.941Z,3.50
2023-01-10T04:25:08.072Z,3.42
2023-01-10T04:27:37.394Z,3.51
2023-01-10T04:30:08.445Z,3.53
2023-01-10T04:32:37.621Z,3.63
2023-01-10T04:35:07.305Z,3.70
2023-01-10T04:37:38.587Z,3.68
2023-01-10T04:40:09.024Z,3.71
2023-01-10T04:42:38.392Z,3.69
2023-01-10T04:45:10.476Z,3.58
2023-01-10T04:47:39.707Z,3.62
2023-01-10T04:50:09.421Z,3.69
2023-01-10T04:52:41.382Z,3.70
2023-01-10T04:55:11.266Z,3.70
2023-01-10T04:57:41.113Z,3.78
2023-01-10T05:00:11.528Z,3.69
2023-01-10T05:02:44.457Z,3.77
2023-01-10T05:05:15.585Z,3.72
2023-01-10T05:07:47.575Z,3.73
2023-01-10T05:10:16.730Z,3.66
2023-01-10T05:12:47.491Z,3.55
2023-01-10T05:15:16.851Z,3.56
2023-01-10T05:17:46.432Z,3.64
2023-01-10T05:20:15.631Z,3.59
2023-01-10T05:22:46.949Z,3.53
2023-01-10T05:25:16.329Z,3.49
2023-01-10T05:27:45.569Z,3.52
2023-01-10T05:30:15.690Z,3.56
2023-01-10T05:32:44.794Z,3.59
2023-01-10T05:35:14.099Z,3.54
2023-01-10T05:37:43.156Z,3.68
2023-01-10T05:40:19.473Z,3.67
2023-01-10T05:42:48.482Z,3.79
2023-01-10T05:45:17.652Z,3.80
2023-01-10T05:47:46.755Z,3.84
2023-01-10T05:50:17.453Z,3.86
2023-01-10T05:52:47.994Z,3.88
2023-01-10T05:55:21.099Z,3.87
2023-01-10T05:57:50.187Z,3.98
2023-01-10T06:00:20.650Z,3.93
2023-01-10T06:02:49.962Z,3.93
2023-01-10T06:05:19.153Z,4.03
2023-01-10T06:07:48.125Z,4.09
2023-01-10T06:10:38.097Z,4.11
2023-01-10T06:13:07.164Z,4.08
2023-01-10T06:15:37.792Z,3.97
2023-01-10T06:18:07.040Z,4.10
2023-01-10T06:20:36.425Z,4.16
2023-01-10T06:23:05.656Z,4.09
2023-01-10T06:25:40.647Z,4.07
2023-01-10T06:28:10.581Z,4.06
2023-01-10T06:30:41.212Z,4.00
2023-01-10T06:33:11.140Z,4.12
2023-01-10T06:35:41.309Z,4.20
2023-01-10T06:38:10.648Z,4.18
2023-01-10T06:40:41.366Z,4.13
2023-01-10T06:43:10.464Z,4.16
2023-01-10T06:45:39.703Z,4.03
2023-01-10T06:48:09.067Z,4.02
2023-01-10T06:50:40.985Z,4.15
2023-01-10T06:53:11.014Z,4.20
2023-01-10T06:55:41.645Z,4.22
2023-01-10T06:58:11.275Z,4.23
2023-01-10T07:00:40.659Z,4.28
2023-01-10T07:03:11.458Z,4.28
2023-01-10T07:05:40.666Z,4.27
2023-01-10T07:08:10.124Z,4.37
2023-01-10T07:10:43.460Z,4.27
2023-01-10T07:13:13.454Z,4.38
2023-01-10T07:15:42.793Z,4.37
2023-01-10T07:18:20.878Z,4.45
2023-01-10T07:20:50.625Z,4.49
2023-01-10T07:23:19.931Z,4.60
2023-01-10T07:25:51.372Z,4.63
2023-01-10T07:28:20.780Z,4.62
2023-01-10T07:30:50.598Z,4.60
2023-01-10T07:33:20.087Z,4.64
2023-01-10T07:35:49.355Z,4.67
2023-01-10T07:38:18.453Z,4.63
2023-01-10T07:40:47.825Z,4.68
2023-01-10T07:43:18.465Z,4.62
2023-01-10T07:45:49.109Z,4.75
2023-01-10T07:48:19.264Z,4.70
2023-01-10T07:50:49.080Z,4.75
2023-01-10T07:53:18.452Z,4.77
2023-01-10T07:55:47.552Z,4.84
2023-01-10T07:58:18.856Z,4.79
2023-01-10T08:00:50.721Z,4.82
2023-01-10T08:03:20.323Z,4.93
2023-01-10T08:05:49.590Z,4.96
2023-01-10T08:08:24.905Z,4.95
2023-01-10T08:10:54.289Z,4.96
2023-01-10T08:13:25.499Z,5.00
2023-01-10T08:15:54.817Z,5.05
2023-01-10T08:18:25.631Z,5.04
2023-01-10T08:20:56.123Z,5.05
2023-01-10T08:23:25.866Z,4.93
2023-01-10T08:25:55.542Z,5.11
2023-01-10T08:28:26.118Z,5.11
2023-01-10T08:30:56.302Z,5.14
2023-01-10T08:33:27.635Z,5.20
2023-01-10T08:35:56.773Z,5.16
2023-01-10T08:38:26.091Z,5.19
2023-01-10T08:40:58.204Z,5.20
2023-01-10T08:43:28.689Z,5.23
2023-01-10T08:45:58.078Z,5.19
2023-01-10T08:48:27.269Z,5.29
2023-01-10T08:50:56.608Z,5.16
2023-01-10T08:53:31.396Z,5.27
2023-01-10T08:56:03.198Z,5.30
2023-01-10T08:58:34.921Z,5.34
2023-01-10T09:01:06.265Z,5.34
2023-01-10T09:03:35.875Z,5.37
2023-01-10T09:06:05.720Z,5.36
2023-01-10T09:08:35.035Z,5.40
2023-01-10T09:11:06.602Z,5.38
2023-01-10T09:13:37.278Z,5.31
2023-01-10T09:16:06.881Z,5.31
2023-01-10T09:18:36.542Z,5.33
2023-01-10T09:21:05.975Z,5.33
2023-01-10T09:23:37.021Z,5.37
2023-01-10T09:26:06.344Z,5.31
2023-01-10T09:28:36.958Z,5.35
2023-01-10T09:31:07.490Z,5.33
2023-01-10T09:33:46.131Z,5.36
2023-01-10T09:36:16.908Z,5.42
2023-01-10T09:38:46.607Z,5.39
2023-01-10T09:41:38.451Z,5.34
2023-01-10T09:44:20.734Z,5.30
2023-01-10T09:47:02.212Z,5.32
2023-01-10T09:49:45.828Z,5.23
2023-01-10T09:52:23.286Z,5.25
2023-01-10T09:54:56.413Z,5.24
2023-01-10T09:57:26.659Z,5.26
2023-01-10T09:59:58.638Z,5.22
2023-01-10T10:02:32.248Z,5.20
2023-01-10T10:05:10.076Z,5.25
2023-01-10T10:07:39.458Z,5.22
2023-01-10T10:10:14.084Z,5.32
2023-01-10T10:12:51.273Z,5.33
2023-01-10T10:15:31.083Z,5.37
2023-01-10T10:18:16.938Z,5.41
2023-01-10T10:20:59.305Z,5.42
2023-01-10T10:23:41.258Z,5.47
2023-01-10T10:26:19.456Z,5.43
2023-01-10T10:29:08.078Z,5.40
2023-01-10T10:31:57.821Z,5.52
2023-01-10T10:34:36.860Z,5.61
2023-01-10T10:37:13.793Z,5.71
2023-01-10T10:39:49.048Z,5.76
2023-01-10T10:42:21.102Z,5.75
2023-01-10T10:44:56.072Z,5.87
2023-01-10T10:47:31.968Z,5.86
2023-01-10T10:50:08.609Z,5.84
2023-01-10T10:52:38.930Z,5.77
2023-01-10T10:55:14.000Z,5.74
2023-01-10T10:57:59.023Z,5.74
2023-01-10T11:00:30.333Z,5.75
2023-01-10T11:03:08.741Z,5.76
2023-01-10T11:05:40.629Z,5.75
2023-01-10T11:08:13.129Z,5.73
2023-01-10T11:10:44.220Z,5.79
2023-01-10T11:13:22.578Z,5.77
2023-01-10T11:15:54.081Z,5.78
2023-01-10T11:18:27.195Z,5.77
2023-01-10T11:21:00.410Z,5.81
2023-01-10T11:23:49.803Z,5.84
2023-01-10T11:26:28.186Z,5.79
2023-01-10T11:29:08.655Z,5.76
2023-01-10T11:31:39.100Z,5.84
2023-01-10T11:34:22.330Z,5.91
2023-01-10T11:36:56.498Z,5.93
2023-01-10T11:39:26.127Z,6.01
2023-01-10T11:41:57.196Z,5.93
2023-01-10T11:44:28.183Z,5.88
2023-01-10T11:46:59.364Z,5.82
2023-01-10T11:49:35.760Z,5.74
2023-01-10T11:52:08.329Z,5.78
2023-01-10T11:54:37.565Z,5.89
2023-01-10T11:57:11.573Z,5.89
2023-01-10T11:59:40.781Z,5.97
2023-01-10T12:02:22.166Z,5.88
2023-01-10T12:05:02.286Z,6.03
2023-01-10T12:07:32.421Z,6.07
2023-01-10T12:10:03.993Z,6.10
2023-01-10T12:12:35.081Z,6.14
2023-01-10T12:15:23.891Z,6.12
2023-01-10T12:17:55.502Z,6.12
2023-01-10T12:20:29.632Z,6.23
2023-01-10T12:23:02.685Z,6.21
2023-01-10T12:25:36.221Z,6.19
2023-01-10T12:28:06.530Z,6.17
2023-01-10T12:30:39.210Z,6.14
2023-01-10T12:33:15.288Z,6.13
2023-01-10T12:35:51.904Z,6.18
2023-01-10T12:38:58.288Z,6.22
2023-01-10T12:41:52.183Z,6.18
2023-01-10T12:44:25.785Z,6.21
2023-01-10T12:47:12.777Z,6.21
2023-01-10T12:49:50.281Z,6.15
2023-01-10T12:52:31.100Z,6.04
2023-01-10T12:55:01.037Z,5.94
2023-01-10T12:57:33.937Z,5.80
2023-01-10T13:00:05.738Z,5.72
2023-01-10T13:02:44.170Z,5.89
2023-01-10T13:05:20.724Z,5.86
2023-01-10T13:07:53.205Z,5.96
2023-01-10T13:10:24.593Z,5.95
2023-01-10T13:12:59.936Z,5.84
2023-01-10T13:15:32.084Z,5.87
2023-01-10T13:18:04.149Z,5.92
2023-01-10T13:20:51.358Z,5.94
2023-01-10T13:23:33.619Z,5.98
2023-01-10T13:26:09.238Z,5.96
2023-01-10T13:28:41.605Z,5.84
2023-01-10T13:31:28.119Z,5.89
2023-01-10T13:34:00.656Z,5.86
2023-01-10T13:36:37.182Z,5.86
2023-01-10T13:39:20.976Z,5.88
2023-01-10T13:42:45.714Z,5.89
2023-01-10T13:45:24.087Z,5.91
2023-01-10T13:48:07.254Z,5.96
2023-01-10T13:50:58.624Z,5.90
2023-01-10T13:53:47.137Z,5.86
2023-01-10T13:56:36.698Z,5.98
2023-01-10T13:59:29.430Z,5.98
2023-01-10T14:02:18.822Z,5.94
2023-01-10T14:04:53.231Z,5.94
2023-01-10T14:07:28.859Z,5.87
2023-01-10T14:10:05.013Z,5.88
2023-01-10T14:12:40.538Z,5.90
2023-01-10T14:15:24.921Z,5.88
2023-01-10T14:18:05.467Z,5.93
2023-01-10T14:20:43.971Z,5.93
2023-01-10T14:23:23.384Z,5.85
2023-01-10T14:25:56.569Z,5.82
2023-01-10T14:28:29.402Z,5.76
2023-01-10T14:31:04.713Z,5.67
2023-01-10T14:33:35.836Z,5.69
2023-01-10T14:36:15.697Z,5.63
2023-01-10T14:38:46.941Z,5.62
2023-01-10T14:41:23.306Z,5.64
2023-01-10T14:43:59.279Z,5.64
2023-01-10T14:46:36.221Z,5.66
2023-01-10T14:49:23.305Z,5.58
2023-01-10T14:51:53.278Z,5.65
2023-01-10T14:54:23.759Z,5.53
2023-01-10T14:56:55.379Z,5.42
2023-01-10T14:59:27.565Z,5.33
2023-01-10T15:01:58.897Z,5.24
2023-01-10T15:04:33.174Z,5.03
2023-01-10T15:07:04.505Z,5.09
2023-01-10T15:09:34.798Z,4.84
2023-01-10T15:12:08.695Z,4.84
2023-01-10T15:14:42.979Z,4.71
2023-01-10T15:17:20.525Z,4.73
2023-01-10T15:19:54.095Z,4.53
2023-01-10T15:22:30.454Z,4.38
2023-01-10T15:25:01.887Z,4.21
2023-01-10T15:27:33.744Z,4.29
2023-01-10T15:30:10.609Z,4.09
2023-01-10T15:32:41.652Z,3.96
2023-01-10T15:35:17.908Z,4.10
2023-01-10T15:37:54.621Z,3.96
2023-01-10T15:40:25.934Z,3.72
2023-01-10T15:43:12.961Z,3.69
2023-01-10T15:45:45.142Z,3.49
2023-01-10T15:48:33.923Z,3.36
2023-01-10T15:51:06.913Z,3.36
2023-01-10T15:53:58.259Z,3.14
2023-01-10T15:56:30.712Z,3.01
2023-01-10T15:59:01.249Z,3.13
2023-01-10T16:01:33.897Z,3.04
2023-01-10T16:04:05.428Z,3.05
2023-01-10T16:06:38.423Z,3.02
2023-01-10T16:09:10.421Z,2.98
2023-01-10T16:12:00.048Z,2.87
2023-01-10T16:14:29.308Z,2.96
2023-01-10T16:17:00.105Z,2.90
2023-01-10T16:19:29.336Z,2.80
2023-01-10T16:22:00.802Z,2.81
2023-01-10T16:24:32.654Z,2.80
2023-01-10T16:27:06.213Z,2.85
2023-01-10T16:29:35.769Z,2.81
2023-01-10T16:32:14.365Z,2.90
2023-01-10T16:34:44.303Z,2.80
2023-01-10T16:37:13.347Z,2.95
2023-01-10T16:39:42.728Z,2.84
2023-01-10T16:42:29.106Z,2.92
2023-01-10T16:44:58.541Z,2.91
2023-01-10T16:47:29.263Z,3.00
2023-01-10T16:49:58.445Z,2.99
2023-01-10T16:52:28.303Z,2.89
2023-01-10T16:54:57.507Z,2.87
2023-01-10T16:57:26.931Z,2.94
2023-01-10T16:59:56.728Z,2.96
2023-01-10T17:02:25.973Z,2.85
2023-01-10T17:04:58.897Z,2.98
2023-01-10T17:07:28.014Z,2.97
2023-01-10T17:09:58.665Z,2.95
2023-01-10T17:12:33.209Z,2.92
2023-01-10T17:15:04.321Z,2.78
2023-01-10T17:17:33.561Z,2.90
2023-01-10T17:20:04.418Z,2.91
2023-01-10T17:22:34.000Z,2.91
2023-01-10T17:25:03.867Z,2.90
2023-01-10T17:27:33.107Z,2.87
2023-01-10T17:30:02.502Z,2.82
2023-01-10T17:32:32.903Z,2.90
2023-01-10T17:35:03.767Z,2.69
2023-01-10T17:37:33.263Z,2.85
2023-01-10T17:40:02.664Z,2.74
2023-01-10T17:42:32.692Z,2.67
2023-01-10T17:45:02.261Z,2.69
2023-01-10T17:47:33.434Z,2.69
2023-01-10T17:50:04.362Z,2.63
2023-01-10T17:52:33.667Z,2.71
2023-01-10T17:55:03.742Z,2.60
2023-01-10T17:57:33.822Z,2.62
2023-01-10T18:00:06.966Z,2.68
2023-01-10T18:02:36.346Z,2.63
2023-01-10T18:05:08.482Z,2.64
2023-01-10T18:07:37.787Z,2.69
2023-01-10T18:10:09.169Z,2.63
2023-01-10T18:12:38.947Z,2.68
2023-01-10T18:15:29.403Z,2.61
2023-01-10T18:17:59.215Z,2.75
2023-01-10T18:20:29.855Z,2.75
2023-01-10T18:23:16.552Z,2.73
2023-01-10T18:25:52.549Z,2.76
2023-01-10T18:28:39.057Z,2.77
2023-01-10T18:31:11.541Z,2.68
2023-01-10T18:33:40.974Z,2.68
2023-01-10T18:36:16.272Z,2.72
2023-01-10T18:38:46.341Z,2.77
2023-01-10T18:41:16.716Z,2.77
2023-01-10T18:43:46.492Z,2.79
2023-01-10T18:46:21.930Z,2.73
2023-01-10T18:48:54.322Z,2.82
2023-01-10T18:51:26.204Z,2.83
2023-01-10T18:53:55.595Z,2.84
2023-01-10T18:56:25.725Z,2.93
2023-01-10T18:58:54.872Z,2.95
2023-01-10T19:01:24.097Z,2.87
2023-01-10T19:03:53.642Z,2.84
2023-01-10T19:06:25.150Z,2.89
2023-01-10T19:08:55.905Z,2.84
2023-01-10T19:11:25.475Z,2.93
2023-01-10T19:13:55.463Z,2.94
2023-01-10T19:16:26.410Z,2.97
2023-01-10T19:18:57.830Z,2.92
2023-01-10T19:21:30.697Z,2.94
2023-01-10T19:24:03.961Z,2.96
2023-01-10T19:26:34.317Z,2.77
2023-01-10T19:29:04.910Z,2.87
2023-01-10T19:31:34.529Z,2.83
2023-01-10T19:34:03.929Z,2.80
2023-01-10T19:36:35.274Z,2.82
2023-01-10T19:39:05.594Z,2.83
2023-01-10T19:41:35.510Z,2.85
2023-01-10T19:44:07.239Z,2.69
2023-01-10T20:06:40.645Z,3.61
2023-01-10T20:09:13.723Z,3.51
2023-01-10T20:11:46.350Z,3.36
2023-01-10T20:14:18.419Z,3.12
2023-01-10T20:16:48.150Z,3.05
2023-01-10T20:19:17.658Z,3.02
2023-01-10T20:21:48.269Z,2.96
2023-01-10T20:24:18.965Z,2.96
2023-01-10T20:26:49.245Z,2.87
2023-01-10T20:29:19.312Z,2.85
2023-01-10T20:31:53.010Z,2.83
2023-01-10T20:34:23.222Z,2.76
2023-01-10T20:36:54.660Z,2.73
2023-01-10T20:39:24.446Z,2.71
2023-01-10T20:41:53.708Z,2.72
2023-01-10T20:44:23.456Z,2.73
2023-01-10T20:46:52.796Z,2.81
2023-01-10T20:49:22.222Z,2.83
2023-01-10T20:51:53.979Z,2.76
2023-01-10T20:54:23.087Z,2.79
2023-01-10T20:56:52.111Z,2.88
2023-01-10T20:59:21.258Z,2.96
2023-01-10T21:01:50.412Z,2.93
2023-01-10T21:04:19.493Z,2.93
2023-01-10T21:06:48.716Z,2.92
2023-01-10T21:09:19.737Z,2.86
2023-01-10T21:12:02.110Z,2.78
2023-01-10T21:14:37.703Z,2.75
2023-01-10T21:17:06.750Z,2.84
2023-01-10T21:19:35.852Z,2.80
2023-01-10T21:22:04.911Z,2.86
2023-01-10T21:24:35.350Z,2.79
2023-01-10T21:27:04.421Z,2.81
2023-01-10T21:29:33.454Z,2.72
2023-01-10T21:32:02.824Z,2.69
2023-01-10T21:34:31.999Z,2.76
2023-01-10T21:37:01.041Z,2.77
2023-01-10T21:39:30.118Z,2.80
2023-01-10T21:42:18.243Z,2.85
2023-01-10T21:44:47.292Z,2.81
2023-01-10T21:47:16.273Z,2.80
2023-01-10T21:49:45.207Z,2.77
2023-01-10T21:52:14.205Z,2.85
2023-01-10T21:54:43.313Z,2.86
2023-01-10T21:57:14.113Z,2.88
2023-01-10T21:59:43.100Z,2.86
2023-01-10T22:02:15.405Z,2.84
2023-01-10T22:04:47.013Z,2.83
2023-01-10T22:07:17.376Z,2.77
2023-01-10T22:09:46.403Z,2.78
2023-01-10T22:12:16.831Z,2.77
2023-01-10T22:14:46.506Z,2.75
2023-01-10T22:17:15.667Z,2.75
2023-01-10T22:19:44.808Z,2.73
2023-01-10T22:22:14.134Z,2.61
2023-01-10T22:24:46.866Z,2.61
2023-01-10T22:27:17.306Z,2.63
2023-01-10T22:29:46.295Z,2.65
2023-01-10T22:32:15.332Z,2.64
2023-01-10T22:34:44.335Z,2.64
2023-01-10T22:37:13.257Z,2.65
2023-01-10T22:39:42.259Z,2.64
2023-01-10T22:42:11.253Z,2.66
2023-01-10T22:44:41.696Z,2.66
2023-01-10T22:47:10.909Z,2.67
2023-01-10T22:49:40.057Z,2.50
2023-01-10T22:52:11.454Z,2.55
2023-01-10T22:54:40.437Z,2.55
2023-01-10T22:57:09.652Z,2.55
2023-01-10T23:02:30.703Z,2.60
2023-01-10T23:04:59.937Z,2.62
2023-01-10T23:07:29.471Z,2.64
2023-01-10T23:09:58.369Z,2.62
2023-01-10T23:12:27.239Z,2.58
2023-01-10T23:14:56.262Z,2.57
2023-01-10T23:17:26.583Z,2.54
2023-01-10T23:19:55.493Z,2.58
2023-01-10T23:22:25.789Z,2.55
2023-01-10T23:24:54.894Z,2.52
2023-01-10T23:27:24.247Z,2.52
2023-01-10T23:29:53.248Z,2.59
2023-01-10T23:32:22.133Z,2.62
2023-01-10T23:34:52.502Z,2.68
2023-01-10T23:37:21.420Z,2.67
2023-01-10T23:39:50.360Z,2.71
2023-01-10T23:42:19.314Z,2.76
2023-01-10T23:44:48.338Z,2.76
2023-01-10T23:47:17.302Z,2.79
2023-01-10T23:49:46.159Z,2.76
2023-01-10T23:52:16.430Z,2.79
2023-01-10T23:54:45.286Z,2.79
2023-01-10T23:57:14.391Z,2.87
2023-01-10T23:59:43.449Z,2.91
